createdAt,value
2023-04-18T00:19:13.385Z,6.00
2023-04-18T00:23:02.166Z,5.40
2023-04-18T00:26:51.130Z,5.20
2023-04-18T00:30:19.940Z,5.50
2023-04-18T00:52:59.786Z,5.70
2023-04-18T00:56:49.063Z,5.60
2023-04-18T01:00:38.351Z,6.00
2023-04-18T01:16:04.384Z,7.40
2023-04-18T01:19:34.676Z,4.90
2023-04-18T01:23:06.171Z,4.20
2023-04-18T01:26:55.209Z,6.20
2023-04-18T01:30:45.251Z,7.00
2023-04-18T01:53:31.075Z,6.80
2023-04-18T01:57:12.537Z,6.70
2023-04-18T02:01:03.169Z,6.20
2023-04-18T02:12:55.622Z,6.30
2023-04-18T02:16:44.813Z,6.40
2023-04-18T02:35:55.117Z,6.30
2023-04-18T02:39:44.075Z,6.50
2023-04-18T03:06:17.484Z,6.30
2023-04-18T03:10:06.441Z,5.90
2023-04-18T03:13:14.916Z,5.90
2023-04-18T03:17:03.931Z,6.70
2023-04-18T03:20:52.800Z,6.30
2023-04-18T03:47:37.494Z,8.10
2023-04-18T03:51:34.096Z,6.90
2023-04-18T03:55:23.316Z,6.00
2023-04-18T04:14:47.918Z,7.60
2023-04-18T04:18:36.475Z,5.40
2023-04-18T04:22:26.522Z,5.80
2023-04-18T04:41:23.493Z,7.50
2023-04-18T04:45:13.787Z,6.50
2023-04-18T05:08:12.124Z,6.40
2023-04-18T05:12:01.067Z,6.80
2023-04-18T05:15:50.484Z,7.40
2023-04-18T05:31:28.403Z,6.30
2023-04-18T05:35:17.513Z,7.90
2023-04-18T05:43:21.601Z,8.00
2023-04-18T05:47:10.687Z,7.30
2023-04-18T05:50:55.844Z,7.20
2023-04-18T05:54:47.596Z,6.00
2023-04-18T06:10:23.966Z,7.20
2023-04-18T06:14:05.827Z,6.80
2023-04-18T06:17:54.816Z,6.20
2023-04-18T06:40:27.253Z,7.40
2023-04-18T06:44:16.234Z,7.00
2023-04-18T07:06:52.252Z,6.00
2023-04-18T07:10:42.245Z,7.00
2023-04-18T07:33:31.798Z,9.10
2023-04-18T07:36:02.462Z,6.90
2023-04-18T07:38:30.872Z,7.70
2023-04-18T07:41:01.312Z,7.50
2023-04-18T07:43:29.983Z,7.90
2023-04-18T07:45:58.177Z,8.30
2023-04-18T07:48:27.045Z,7.50
2023-04-18T07:50:55.241Z,8.00
2023-04-18T07:53:23.619Z,8.00
2023-04-18T07:55:51.930Z,7.90
2023-04-18T07:58:19.949Z,8.20
2023-04-18T08:00:47.845Z,6.70
2023-04-18T08:03:16.402Z,7.70
2023-04-18T08:05:44.561Z,6.80
2023-04-18T08:08:13.455Z,7.80
2023-04-18T08:10:41.447Z,6.20
2023-04-18T08:13:09.608Z,6.60
2023-04-18T08:15:37.592Z,7.90
2023-04-18T08:18:06.079Z,6.30
2023-04-18T08:20:37.286Z,8.70
2023-04-18T08:23:07.883Z,6.60
2023-04-18T08:25:37.280Z,7.70
2023-04-18T08:28:05.814Z,6.20
2023-04-18T08:30:34.114Z,7.10
2023-04-18T08:33:03.044Z,7.20
2023-04-18T08:35:31.231Z,6.40
2023-04-18T08:38:00.953Z,7.00
2023-04-18T08:40:30.477Z,6.80
2023-04-18T08:43:05.100Z,7.40
2023-04-18T08:45:33.581Z,7.90
2023-04-18T08:48:03.771Z,5.90
2023-04-18T08:50:32.580Z,7.00
2023-04-18T08:53:01.392Z,6.50
2023-04-18T08:55:29.692Z,6.50
2023-04-18T08:57:57.610Z,7.40
2023-04-18T09:00:27.569Z,7.40
2023-04-18T09:02:59.344Z,7.60
2023-04-18T09:05:27.623Z,6.00
2023-04-18T09:07:56.880Z,6.40
2023-04-18T09:10:33.222Z,7.20
2023-04-18T09:13:03.881Z,6.10
2023-04-18T09:15:32.124Z,8.40
2023-04-18T09:18:03.189Z,6.70
2023-04-18T09:20:44.756Z,6.60
2023-04-18T09:23:23.600Z,6.90
2023-04-18T09:25:52.576Z,6.50
2023-04-18T09:28:30.717Z,6.60
2023-04-18T09:31:19.094Z,6.50
2023-04-18T09:33:57.054Z,8.50
2023-04-18T09:36:27.909Z,6.00
2023-04-18T09:38:57.258Z,5.30
2023-04-18T09:41:25.548Z,7.60
2023-04-18T09:44:15.843Z,6.00
2023-04-18T09:46:47.397Z,7.30
2023-04-18T09:49:17.411Z,6.30
2023-04-18T09:51:46.791Z,5.90
2023-04-18T09:54:17.302Z,6.80
2023-04-18T09:56:47.761Z,5.30
2023-04-18T09:59:25.279Z,6.90
2023-04-18T10:01:55.434Z,7.10
2023-04-18T10:04:24.363Z,5.50
2023-04-18T10:06:54.445Z,6.50
2023-04-18T10:09:23.214Z,6.00
2023-04-18T10:11:52.053Z,6.50
2023-04-18T10:14:23.212Z,6.60
2023-04-18T10:16:51.902Z,6.20
2023-04-18T10:19:30.110Z,6.00
2023-04-18T10:22:01.088Z,5.90
2023-04-18T10:24:53.612Z,5.70
2023-04-18T10:27:49.622Z,5.70
2023-04-18T10:30:19.437Z,5.10
2023-04-18T10:32:47.533Z,6.00
2023-04-18T10:35:15.498Z,6.70
2023-04-18T10:37:51.336Z,5.20
2023-04-18T10:40:35.790Z,5.80
2023-04-18T10:44:24.733Z,5.20
2023-04-18T10:48:13.616Z,5.40
2023-04-18T10:52:14.958Z,8.50
2023-04-18T10:56:18.593Z,7.40
2023-04-18T11:00:07.739Z,6.60
2023-04-18T11:03:57.623Z,4.90
2023-04-18T11:07:50.792Z,6.20
2023-04-18T11:30:51.960Z,5.10
2023-04-18T11:33:20.882Z,5.20
2023-04-18T11:36:21.398Z,5.60
2023-04-18T11:38:52.129Z,6.10
2023-04-18T11:41:28.775Z,5.50
2023-04-18T11:44:02.208Z,6.50
2023-04-18T11:46:50.352Z,5.40
2023-04-18T11:49:30.391Z,5.80
2023-04-18T11:52:11.596Z,6.70
2023-04-18T11:54:44.766Z,6.60
2023-04-18T11:57:43.254Z,6.10
2023-04-18T12:00:34.870Z,5.70
2023-04-18T12:03:28.229Z,6.30
2023-04-18T12:06:18.480Z,5.30
2023-04-18T12:08:53.982Z,5.90
2023-04-18T12:11:33.916Z,8.40
2023-04-18T12:14:21.882Z,8.90
2023-04-18T12:17:14.498Z,6.20
2023-04-18T12:20:01.858Z,5.50
2023-04-18T12:22:57.948Z,5.80
2023-04-18T12:25:35.281Z,4.80
2023-04-18T12:28:49.305Z,5.50
2023-04-18T12:31:27.972Z,5.50
2023-04-18T12:34:30.282Z,5.30
2023-04-18T12:37:25.696Z,5.50
2023-04-18T12:40:13.690Z,5.00
2023-04-18T12:42:44.462Z,5.80
2023-04-18T12:45:52.581Z,7.50
2023-04-18T12:48:26.704Z,7.20
2023-04-18T12:51:35.413Z,5.10
2023-04-18T12:54:12.560Z,4.90
2023-04-18T12:57:31.675Z,6.30
2023-04-18T13:00:31.650Z,6.70
2023-04-18T13:03:00.357Z,4.60
2023-04-18T13:05:33.050Z,7.70
2023-04-18T13:08:24.633Z,5.70
2023-04-18T13:11:28.805Z,5.00
2023-04-18T13:14:30.258Z,4.90
2023-04-18T13:18:09.277Z,4.70
2023-04-18T13:21:15.309Z,5.00
2023-04-18T13:25:03.121Z,4.80
2023-04-18T13:28:51.431Z,6.30
2023-04-18T13:48:03.357Z,4.70
2023-04-18T13:51:32.208Z,5.80
2023-04-18T13:55:11.171Z,8.40
2023-04-18T13:58:40.056Z,10.70
2023-04-18T14:02:30.254Z,13.80
2023-04-18T14:06:22.819Z,13.40
2023-04-18T14:25:35.725Z,7.00
2023-04-18T14:29:24.597Z,6.70
2023-04-18T14:33:14.412Z,5.80
2023-04-18T14:48:54.840Z,6.90
2023-04-18T14:52:42.607Z,7.00
2023-04-18T14:56:32.466Z,7.20
2023-04-18T15:11:58.975Z,6.40
2023-04-18T15:15:48.349Z,5.60
2023-04-18T15:19:36.499Z,9.00
2023-04-18T15:23:52.938Z,8.40
2023-04-18T15:27:42.332Z,6.90
2023-04-18T15:31:32.762Z,6.00
2023-04-18T15:35:58.665Z,9.00
2023-04-18T15:39:46.569Z,8.50
2023-04-18T15:43:36.382Z,7.50
2023-04-18T15:59:14.795Z,7.60
2023-04-18T16:03:03.957Z,7.70
2023-04-18T16:06:58.940Z,8.90
2023-04-18T16:22:50.976Z,9.60
2023-04-18T16:26:33.289Z,9.10
2023-04-18T16:30:23.373Z,10.60
2023-04-18T16:33:56.178Z,9.60
2023-04-18T16:49:34.477Z,11.70
2023-04-18T16:53:24.244Z,12.30
2023-04-18T17:08:58.885Z,10.20
2023-04-18T17:12:47.818Z,12.20
2023-04-18T17:16:28.490Z,11.50
2023-04-18T17:31:57.823Z,14.60
2023-04-18T17:35:47.050Z,15.00
2023-04-18T17:39:36.768Z,11.90
2023-04-18T17:54:50.555Z,12.60
2023-04-18T17:58:35.947Z,11.50
2023-04-18T18:02:23.667Z,11.90
2023-04-18T18:06:13.569Z,11.60
2023-04-18T18:25:15.320Z,12.50
2023-04-18T18:29:04.377Z,13.40
2023-04-18T18:32:53.176Z,10.90
2023-04-18T18:36:42.949Z,11.40
2023-04-18T18:52:04.560Z,10.70
2023-04-18T18:55:54.870Z,17.30
2023-04-18T19:15:03.094Z,10.30
2023-04-18T19:18:52.047Z,11.70
2023-04-18T19:34:28.014Z,10.70
2023-04-18T19:37:49.162Z,12.20
2023-04-18T19:41:38.165Z,10.20
2023-04-18T19:49:41.908Z,11.30
2023-04-18T19:53:23.593Z,9.50
2023-04-18T20:01:14.880Z,12.80
2023-04-18T20:05:04.513Z,11.80
2023-04-18T20:08:49.205Z,12.80
2023-04-18T20:12:38.867Z,11.30
2023-04-18T20:31:41.249Z,13.70
2023-04-18T20:35:26.038Z,13.20
2023-04-18T20:39:16.417Z,12.30
2023-04-18T20:51:07.629Z,12.80
2023-04-18T20:54:56.773Z,10.50
2023-04-18T20:58:46.516Z,12.60
2023-04-18T21:02:36.135Z,12.80
2023-04-18T21:18:19.112Z,9.80
2023-04-18T21:21:47.782Z,12.50
2023-04-18T21:25:23.846Z,12.00
2023-04-18T21:29:12.928Z,11.80
2023-04-18T21:55:32.216Z,12.30
2023-04-18T21:59:21.419Z,14.10
2023-04-18T22:03:10.599Z,12.60
2023-04-18T22:22:07.111Z,12.60
2023-04-18T22:25:38.336Z,11.40
2023-04-18T22:29:28.202Z,12.20
2023-04-18T22:45:03.997Z,13.80
2023-04-18T22:48:53.393Z,13.20
2023-04-18T22:52:15.035Z,14.40
2023-04-18T23:11:38.610Z,12.20
2023-04-18T23:15:27.539Z,14.50
2023-04-18T23:19:17.074Z,13.00
2023-04-18T23:38:14.071Z,11.90
2023-04-18T23:42:02.859Z,12.00
2023-04-18T23:50:07.532Z,13.50
2023-04-18T23:53:56.467Z,12.40
